Flight Track Log - Related Links

Times and Time Zones

All times are in EDT time to prevent confusion due to time zone crossing. See the SKW4632 flight status page for this flight to view local times or setup timezone preferences in your user account.


Time Position Orientation Groundspeed Altitude Reporting Facility
EDT Latitude Longitude Course Direction KTS MPH feet Rate Location/Type
Fri 01:22:06 PM 40.7739 -111.9989 50° Northeast 196 226 5,000  Level Salt Lake Center
Fri 01:23:31 PM 40.7653 -112.0869 263° West 255 293 7,900 2,139 Climbing Salt Lake Center
Fri 01:24:01 PM 40.7956 -112.1208 320° Northwest 274 315 9,100 2,066 Climbing Salt Lake Center
Fri 01:24:32 PM 40.8242 -112.1575 316° Northwest 279 321 10,000 1,935 Climbing Salt Lake Center
Fri 01:25:00 PM 41.0272 -112.0895 37° Northeast  Level FlightAware Approximate
Fri 01:25:03 PM 40.8600 -112.1806 334° Northwest 294 338 11,100  Level Salt Lake Center
Fri 01:25:33 PM 40.8967 -112.1644 18° North 291 335 12,100 1,839 Climbing Salt Lake Center
Fri 01:26:00 PM 41.1096 -111.9754 50° Northeast  Level FlightAware Approximate
Fri 01:26:05 PM 40.9292 -112.1275 41° Northeast 300 345 13,000  Level Salt Lake Center
Fri 01:27:00 PM 41.1922 -111.8456 50° Northeast  Level FlightAware Approximate
Fri 01:27:07 PM 41.0047 -112.0806 25° Northeast 311 358 14,800  Level Salt Lake Center
Fri 01:28:09 PM 41.0939 -112.1067 348° North 328 377 15,900 1,113 Climbing Salt Lake Center
Fri 01:29:11 PM 41.1881 -112.1356 347° North 344 396 17,100 1,065 Climbing Salt Lake Center
Fri 01:30:13 PM 41.2867 -112.1661 347° North 360 414 18,100 1,008 Climbing Salt Lake Center
Fri 01:31:16 PM 41.3875 -112.1975 347° North 371 427 19,200 1,161 Climbing Salt Lake Center
Fri 01:32:17 PM 41.5083 -112.2350 347° North 373 429 20,500 1,122 Climbing Salt Lake Center
Fri 01:33:19 PM 41.6111 -112.2664 347° North 379 436 21,500 871 Climbing Salt Lake Center
Fri 01:34:21 PM 41.7147 -112.2994 347° North 385 443 22,300 774 Climbing Salt Lake Center
Fri 01:35:23 PM 41.8197 -112.3319 347° North 386 444 23,100 823 Climbing Salt Lake Center
Fri 01:36:25 PM 41.9275 -112.3664 347° North 395 455 24,000 823 Climbing Salt Lake Center
Fri 01:37:27 PM 42.0356 -112.4003 347° North 400 460 24,800 823 Climbing Salt Lake Center
Fri 01:38:29 PM 42.1672 -112.4417 347° North 405 466 25,700 823 Climbing Salt Lake Center
Fri 01:39:31 PM 42.2783 -112.4783 346° North 410 472 26,500 677 Climbing Salt Lake Center
Fri 01:40:33 PM 42.3917 -112.5144 347° North 417 480 27,100 532 Climbing Salt Lake Center
Fri 01:41:35 PM 42.5067 -112.5514 347° North 425 489 27,600 484 Climbing Salt Lake Center
Fri 01:42:37 PM 42.6244 -112.5889 347° North 433 498 28,100 484 Climbing Salt Lake Center
Fri 01:43:39 PM 42.7475 -112.6639 336° Northwest 439 505 28,600 532 Climbing Salt Lake Center
Fri 01:44:41 PM 42.8728 -112.7375 337° Northwest 440 506 29,200 532 Climbing Salt Lake Center
Fri 01:45:43 PM 42.9831 -112.8017 337° Northwest 446 513 29,700 384 Climbing Salt Lake Center
Fri 01:46:46 PM 43.0919 -112.8644 337° Northwest 444 511 30,000 144 Climbing Salt Lake Center
Fri 01:47:48 PM 43.2200 -112.9428 336° Northwest 450 518 30,000  Level Salt Lake Center
Fri 01:48:50 PM 43.3331 -113.0106 336° Northwest 458 527 30,000  Level Salt Lake Center
Fri 01:49:52 PM 43.4661 -113.0953 335° Northwest 467 537 30,000  Level Salt Lake Center
Fri 01:50:54 PM 43.5819 -113.1667 336° Northwest 472 543 30,000  Level Salt Lake Center
Fri 01:51:56 PM 43.7169 -113.2450 337° Northwest 471 542 30,000  Level Salt Lake Center
Fri 01:52:58 PM 43.8325 -113.3153 336° Northwest 472 543 30,000  Level Salt Lake Center
Fri 01:54:00 PM 43.9656 -113.3997 335° Northwest 471 542 30,000  Level Salt Lake Center
Fri 01:55:02 PM 44.0792 -113.4778 334° Northwest 473 544 30,000  Level Salt Lake Center
Fri 01:56:04 PM 44.2111 -113.5711 333° Northwest 474 545 30,000  Level Salt Lake Center
Fri 01:57:06 PM 44.3228 -113.6578 331° Northwest 477 549 30,000  Level Salt Lake Center
Fri 01:58:08 PM 44.4250 -113.7514 327° Northwest 466 536 30,000  Level Salt Lake Center
Fri 01:59:10 PM 44.5592 -113.8283 338° Northwest 466 536 30,000  Level Salt Lake Center
Fri 02:00:12 PM 44.6842 -113.8564 351° North 471 542 30,000  Level Salt Lake Center
Fri 02:01:14 PM 44.8378 -113.8675 357° North 483 556 30,000  Level Salt Lake Center
Fri 02:02:16 PM 44.9678 -113.8817 356° North 488 562 30,000  Level Salt Lake Center
Fri 02:03:18 PM 45.1192 -113.8972 356° North 487 560 30,000  Level Salt Lake Center
Fri 02:04:20 PM 45.2486 -113.9108 356° North 486 559 30,000  Level Salt Lake Center
Fri 02:05:22 PM 45.4031 -113.9242 357° North 494 568 30,000  Level Salt Lake Center
Fri 02:06:26 PM 45.5333 -113.9381 356° North 492 566 30,000  Level Salt Lake Center
Fri 02:07:26 PM 45.6694 -113.9531 356° North 488 562 30,000 -541 Level Salt Lake Center
Fri 02:08:28 PM 45.8036 -113.9653 356° North 486 559 28,900 -1,742 Descending Salt Lake Center
Fri 02:09:30 PM 45.9342 -113.9783 356° North 476 548 26,400 -2,419 Descending Salt Lake Center
Fri 02:10:32 PM 46.0594 -113.9919 356° North 461 531 23,900 -2,710 Descending Salt Lake Center
Fri 02:11:34 PM 46.2006 -114.0078 356° North 426 490 20,800 -2,565 Descending Salt Lake Center
Fri 02:12:36 PM 46.3189 -114.0208 356° North 409 471 18,600 -1,984 Descending Salt Lake Center
Fri 02:13:38 PM 46.4244 -114.0314 356° North 380 437 16,700 -1,935 Descending Salt Lake Center
Fri 02:14:40 PM 46.5247 -114.0675 346° North 348 400 14,600 -1,306 Descending Salt Lake Center
Fri 02:15:42 PM 46.6069 -114.1361 330° Northwest 342 394 14,000 -581 Descending Salt Lake Center
Fri 02:16:44 PM 46.6900 -114.2050 330° Northwest 321 369 13,400 -960 Descending Salt Lake Center
Fri 02:17:47 PM 46.7625 -114.2697 329° Northwest 308 354 12,000 -1,104 Descending Salt Lake Center
Fri 02:18:49 PM 46.8311 -114.3342 327° Northwest 296 341 11,100 -968 Descending Salt Lake Center
Fri 02:19:51 PM 46.9011 -114.4039 326° Northwest 284 327 10,000 -532 Descending Salt Lake Center
Fri 02:20:53 PM 46.9542 -114.4578 325° Northwest 236 272 10,000  Level Salt Lake Center
Fri 02:21:55 PM 47.0139 -114.5144 327° Northwest 237 273 10,000  Level Salt Lake Center
Fri 02:22:57 PM 47.0703 -114.5678 327° Northwest 240 276 10,000 -387 Level Salt Lake Center
Fri 02:23:59 PM 47.1289 -114.5322 22° Northeast 251 289 9,200 -387 Descending Salt Lake Center
Fri 02:25:01 PM 47.1272 -114.4492 92° East 216 249 9,200 -387 Level Salt Lake Center
Fri 02:26:03 PM 47.0864 -114.3814 131° Southeast 222 255 8,400 -1,161 Descending Salt Lake Center
Fri 02:27:05 PM 47.0469 -114.3156 131° Southeast 200 230 6,800 -1,210 Descending Salt Lake Center
Fri 02:28:07 PM 47.0103 -114.2533 131° Southeast 200 230 5,900 -1,016 Descending Salt Lake Center
Fri 02:29:09 PM 46.9742 -114.1928 131° Southeast 187 215 4,700 -919 Descending Salt Lake Center
Fri 02:30:11 PM 46.9494 -114.1492 130° Southeast 146 168 4,000 -677 Descending Salt Lake Center
Fri 02:31:13 PM 46.9239 -114.1050 130° Southeast 142 163 3,300 -677 Descending Salt Lake Center

Login

Don't have an account? Register now (free) for customized features, flight alerts, and more!